sensor_id;sensor_type;location;lat;lon;timestamp;P1;durP1;ratioP1;P2;durP2;ratioP2
60306;SDS011;46155;52.364;6.580;2023-01-10T04:01:11;29.73;;;26.80;;
60306;SDS011;46155;52.364;6.580;2023-01-10T04:03:36;33.03;;;25.97;;
60306;SDS011;46155;52.364;6.580;2023-01-10T04:06:02;29.40;;;26.43;;
60306;SDS011;46155;52.364;6.580;2023-01-10T04:08:28;29.63;;;27.23;;
60306;SDS011;46155;52.364;6.580;2023-01-10T04:10:53;28.87;;;25.80;;
60306;SDS011;46155;52.364;6.580;2023-01-10T04:13:18;29.27;;;26.67;;
60306;SDS011;46155;52.364;6.580;2023-01-10T04:15:43;27.30;;;25.13;;
60306;SDS011;46155;52.364;6.580;2023-01-10T04:18:09;29.03;;;26.30;;
60306;SDS011;46155;52.364;6.580;2023-01-10T04:20:34;26.13;;;24.00;;
60306;SDS011;46155;52.364;6.580;2023-01-10T04:22:59;24.23;;;22.70;;
60306;SDS011;46155;52.364;6.580;2023-01-10T04:25:24;26.93;;;24.53;;
60306;SDS011;46155;52.364;6.580;2023-01-10T04:27:50;27.27;;;25.00;;
60306;SDS011;46155;52.364;6.580;2023-01-10T04:30:16;28.43;;;26.20;;
60306;SDS011;46155;52.364;6.580;2023-01-10T04:32:42;28.60;;;25.77;;
60306;SDS011;46155;52.364;6.580;2023-01-10T04:35:07;26.00;;;23.87;;
60306;SDS011;46155;52.364;6.580;2023-01-10T04:37:33;27.57;;;25.47;;
60306;SDS011;46155;52.364;6.580;2023-01-10T04:39:58;28.47;;;25.93;;
60306;SDS011;46155;52.364;6.580;2023-01-10T04:42:24;39.47;;;25.77;;
60306;SDS011;46155;52.364;6.580;2023-01-10T04:44:49;28.17;;;25.50;;
60306;SDS011;46155;52.364;6.580;2023-01-10T04:47:14;27.97;;;25.23;;
60306;SDS011;46155;52.364;6.580;2023-01-10T04:49:40;28.93;;;26.40;;
60306;SDS011;46155;52.364;6.580;2023-01-10T04:52:05;29.10;;;26.33;;
60306;SDS011;46155;52.364;6.580;2023-01-10T04:54:30;24.83;;;22.90;;
60306;SDS011;46155;52.364;6.580;2023-01-10T04:56:56;26.50;;;24.17;;
60306;SDS011;46155;52.364;6.580;2023-01-10T04:59:21;27.53;;;24.77;;
60306;SDS011;46155;52.364;6.580;2023-01-10T05:01:46;27.40;;;24.60;;
60306;SDS011;46155;52.364;6.580;2023-01-10T05:04:12;26.13;;;23.67;;
60306;SDS011;46155;52.364;6.580;2023-01-10T05:06:37;27.13;;;24.53;;
60306;SDS011;46155;52.364;6.580;2023-01-10T05:09:04;25.93;;;23.80;;
60306;SDS011;46155;52.364;6.580;2023-01-10T05:11:30;24.70;;;22.77;;
60306;SDS011;46155;52.364;6.580;2023-01-10T05:13:56;28.50;;;25.93;;
60306;SDS011;46155;52.364;6.580;2023-01-10T05:16:21;27.60;;;25.50;;
60306;SDS011;46155;52.364;6.580;2023-01-10T05:18:46;26.83;;;24.37;;
60306;SDS011;46155;52.364;6.580;2023-01-10T05:21:12;27.70;;;25.13;;
60306;SDS011;46155;52.364;6.580;2023-01-10T05:23:38;27.73;;;25.73;;
60306;SDS011;46155;52.364;6.580;2023-01-10T05:26:04;27.70;;;25.30;;
60306;SDS011;46155;52.364;6.580;2023-01-10T05:28:41;28.23;;;25.60;;
60306;SDS011;46155;52.364;6.580;2023-01-10T05:31:07;26.67;;;24.53;;
60306;SDS011;46155;52.364;6.580;2023-01-10T05:33:34;36.30;;;25.00;;
60306;SDS011;46155;52.364;6.580;2023-01-10T05:36:00;28.07;;;25.47;;
60306;SDS011;46155;52.364;6.580;2023-01-10T05:38:30;28.37;;;26.00;;
60306;SDS011;46155;52.364;6.580;2023-01-10T05:40:56;29.50;;;26.47;;
60306;SDS011;46155;52.364;6.580;2023-01-10T05:43:22;28.63;;;24.67;;
60306;SDS011;46155;52.364;6.580;2023-01-10T05:45:48;30.47;;;27.70;;
60306;SDS011;46155;52.364;6.580;2023-01-10T05:48:13;36.77;;;27.50;;
60306;SDS011;46155;52.364;6.580;2023-01-10T05:50:39;28.60;;;25.30;;
60306;SDS011;46155;52.364;6.580;2023-01-10T05:53:04;28.33;;;26.07;;
60306;SDS011;46155;52.364;6.580;2023-01-10T05:55:30;27.50;;;25.63;;
60306;SDS011;46155;52.364;6.580;2023-01-10T05:57:56;29.70;;;27.03;;
60306;SDS011;46155;52.364;6.580;2023-01-10T06:00:21;30.67;;;27.47;;
60306;SDS011;46155;52.364;6.580;2023-01-10T06:02:47;32.70;;;30.27;;
60306;SDS011;46155;52.364;6.580;2023-01-10T06:05:12;40.50;;;28.10;;
60306;SDS011;46155;52.364;6.580;2023-01-10T06:07:38;31.60;;;29.10;;
60306;SDS011;46155;52.364;6.580;2023-01-10T06:10:03;40.57;;;30.67;;
60306;SDS011;46155;52.364;6.580;2023-01-10T06:12:29;31.60;;;27.67;;
60306;SDS011;46155;52.364;6.580;2023-01-10T06:14:54;42.67;;;29.77;;
60306;SDS011;46155;52.364;6.580;2023-01-10T06:17:19;32.97;;;29.90;;
60306;SDS011;46155;52.364;6.580;2023-01-10T06:19:45;36.33;;;31.57;;
60306;SDS011;46155;52.364;6.580;2023-01-10T06:22:10;39.30;;;28.73;;
60306;SDS011;46155;52.364;6.580;2023-01-10T06:24:35;32.57;;;28.87;;
60306;SDS011;46155;52.364;6.580;2023-01-10T06:27:01;36.50;;;29.93;;
60306;SDS011;46155;52.364;6.580;2023-01-10T06:29:26;31.97;;;28.63;;
60306;SDS011;46155;52.364;6.580;2023-01-10T06:31:51;31.07;;;28.23;;
60306;SDS011;46155;52.364;6.580;2023-01-10T06:34:16;30.90;;;27.63;;
60306;SDS011;46155;52.364;6.580;2023-01-10T06:36:42;30.77;;;27.73;;
60306;SDS011;46155;52.364;6.580;2023-01-10T06:39:07;31.67;;;28.50;;
60306;SDS011;46155;52.364;6.580;2023-01-10T06:41:32;29.37;;;26.50;;
60306;SDS011;46155;52.364;6.580;2023-01-10T06:43:58;30.40;;;27.20;;
60306;SDS011;46155;52.364;6.580;2023-01-10T06:46:23;27.73;;;25.43;;
60306;SDS011;46155;52.364;6.580;2023-01-10T06:48:48;27.23;;;24.93;;
60306;SDS011;46155;52.364;6.580;2023-01-10T06:51:14;27.73;;;25.07;;
60306;SDS011;46155;52.364;6.580;2023-01-10T06:53:40;30.10;;;27.17;;
60306;SDS011;46155;52.364;6.580;2023-01-10T06:56:06;31.50;;;26.73;;
60306;SDS011;46155;52.364;6.580;2023-01-10T06:58:33;27.63;;;25.47;;
60306;SDS011;46155;52.364;6.580;2023-01-10T07:00:59;33.10;;;27.93;;
60306;SDS011;46155;52.364;6.580;2023-01-10T07:03:24;31.07;;;28.20;;
60306;SDS011;46155;52.364;6.580;2023-01-10T07:05:49;30.63;;;27.03;;
60306;SDS011;46155;52.364;6.580;2023-01-10T07:08:15;30.13;;;27.67;;
60306;SDS011;46155;52.364;6.580;2023-01-10T07:10:40;26.63;;;24.73;;
60306;SDS011;46155;52.364;6.580;2023-01-10T07:13:07;31.67;;;24.00;;
60306;SDS011;46155;52.364;6.580;2023-01-10T07:15:32;36.57;;;25.73;;
60306;SDS011;46155;52.364;6.580;2023-01-10T07:17:58;30.80;;;27.93;;
60306;SDS011;46155;52.364;6.580;2023-01-10T07:20:23;28.23;;;25.27;;
60306;SDS011;46155;52.364;6.580;2023-01-10T07:22:53;27.27;;;25.20;;
60306;SDS011;46155;52.364;6.580;2023-01-10T07:25:19;31.80;;;28.37;;
60306;SDS011;46155;52.364;6.580;2023-01-10T07:27:45;31.03;;;28.13;;
60306;SDS011;46155;52.364;6.580;2023-01-10T07:30:10;39.50;;;29.53;;
60306;SDS011;46155;52.364;6.580;2023-01-10T07:32:36;30.17;;;27.60;;
60306;SDS011;46155;52.364;6.580;2023-01-10T07:35:01;27.07;;;24.23;;
60306;SDS011;46155;52.364;6.580;2023-01-10T07:37:26;26.43;;;22.07;;
60306;SDS011;46155;52.364;6.580;2023-01-10T07:39:52;29.37;;;21.33;;
60306;SDS011;46155;52.364;6.580;2023-01-10T07:42:17;31.20;;;22.57;;
60306;SDS011;46155;52.364;6.580;2023-01-10T07:44:42;34.43;;;21.23;;
60306;SDS011;46155;52.364;6.580;2023-01-10T07:47:07;28.43;;;22.90;;
60306;SDS011;46155;52.364;6.580;2023-01-10T07:49:33;36.00;;;25.27;;
60306;SDS011;46155;52.364;6.580;2023-01-10T07:51:58;26.57;;;20.47;;
60306;SDS011;46155;52.364;6.580;2023-01-10T07:54:23;32.87;;;20.67;;
60306;SDS011;46155;52.364;6.580;2023-01-10T07:56:49;27.47;;;22.27;;
60306;SDS011;46155;52.364;6.580;2023-01-10T07:59:14;36.60;;;24.20;;
60306;SDS011;46155;52.364;6.580;2023-01-10T08:01:40;32.73;;;25.53;;
60306;SDS011;46155;52.364;6.580;2023-01-10T08:04:05;50.30;;;23.67;;
60306;SDS011;46155;52.364;6.580;2023-01-10T08:06:30;31.23;;;23.33;;
60306;SDS011;46155;52.364;6.580;2023-01-10T08:08:56;40.80;;;24.23;;
60306;SDS011;46155;52.364;6.580;2023-01-10T08:11:21;27.10;;;22.73;;
60306;SDS011;46155;52.364;6.580;2023-01-10T08:13:47;33.97;;;24.23;;
60306;SDS011;46155;52.364;6.580;2023-01-10T08:16:12;46.90;;;24.57;;
60306;SDS011;46155;52.364;6.580;2023-01-10T08:18:39;50.63;;;27.43;;
60306;SDS011;46155;52.364;6.580;2023-01-10T08:21:06;38.07;;;24.43;;
60306;SDS011;46155;52.364;6.580;2023-01-10T08:23:33;32.67;;;22.33;;
60306;SDS011;46155;52.364;6.580;2023-01-10T08:25:59;30.13;;;21.77;;
60306;SDS011;46155;52.364;6.580;2023-01-10T08:28:24;24.13;;;19.53;;
60306;SDS011;46155;52.364;6.580;2023-01-10T08:30:50;23.07;;;20.80;;
60306;SDS011;46155;52.364;6.580;2023-01-10T08:33:19;34.27;;;24.10;;
60306;SDS011;46155;52.364;6.580;2023-01-10T08:35:45;37.47;;;24.63;;
60306;SDS011;46155;52.364;6.580;2023-01-10T08:38:10;37.37;;;23.67;;
60306;SDS011;46155;52.364;6.580;2023-01-10T08:40:36;29.67;;;24.57;;
60306;SDS011;46155;52.364;6.580;2023-01-10T08:43:02;29.60;;;23.43;;
60306;SDS011;46155;52.364;6.580;2023-01-10T08:45:30;26.83;;;22.10;;
60306;SDS011;46155;52.364;6.580;2023-01-10T08:47:56;31.07;;;23.07;;
60306;SDS011;46155;52.364;6.580;2023-01-10T08:50:21;31.83;;;22.60;;
60306;SDS011;46155;52.364;6.580;2023-01-10T08:52:47;38.03;;;22.93;;
60306;SDS011;46155;52.364;6.580;2023-01-10T08:55:13;26.73;;;22.07;;
60306;SDS011;46155;52.364;6.580;2023-01-10T08:57:38;36.97;;;21.37;;
60306;SDS011;46155;52.364;6.580;2023-01-10T09:00:04;27.47;;;19.73;;
60306;SDS011;46155;52.364;6.580;2023-01-10T09:02:30;37.10;;;20.53;;
60306;SDS011;46155;52.364;6.580;2023-01-10T09:04:55;29.77;;;20.03;;
60306;SDS011;46155;52.364;6.580;2023-01-10T09:07:20;26.13;;;21.10;;
60306;SDS011;46155;52.364;6.580;2023-01-10T09:09:46;31.70;;;23.73;;
60306;SDS011;46155;52.364;6.580;2023-01-10T09:12:11;28.40;;;20.93;;
60306;SDS011;46155;52.364;6.580;2023-01-10T09:14:55;25.07;;;20.90;;
60306;SDS011;46155;52.364;6.580;2023-01-10T09:17:20;31.63;;;20.07;;
60306;SDS011;46155;52.364;6.580;2023-01-10T09:19:46;23.57;;;19.83;;
60306;SDS011;46155;52.364;6.580;2023-01-10T09:22:11;36.97;;;20.87;;
60306;SDS011;46155;52.364;6.580;2023-01-10T09:24:36;28.97;;;20.00;;
60306;SDS011;46155;52.364;6.580;2023-01-10T09:27:03;27.83;;;20.83;;
60306;SDS011;46155;52.364;6.580;2023-01-10T09:29:28;24.53;;;19.53;;
60306;SDS011;46155;52.364;6.580;2023-01-10T09:31:54;33.40;;;21.83;;
60306;SDS011;46155;52.364;6.580;2023-01-10T09:34:19;35.63;;;18.23;;
60306;SDS011;46155;52.364;6.580;2023-01-10T09:36:46;35.17;;;20.23;;
60306;SDS011;46155;52.364;6.580;2023-01-10T09:39:11;32.93;;;21.03;;
60306;SDS011;46155;52.364;6.580;2023-01-10T09:52:02;25.57;;;17.93;;
60306;SDS011;46155;52.364;6.580;2023-01-10T09:54:40;35.90;;;16.80;;
60306;SDS011;46155;52.364;6.580;2023-01-10T09:57:09;23.50;;;19.20;;
60306;SDS011;46155;52.364;6.580;2023-01-10T09:59:43;27.07;;;18.40;;
60306;SDS011;46155;52.364;6.580;2023-01-10T10:02:22;38.17;;;19.33;;
60306;SDS011;46155;52.364;6.580;2023-01-10T10:07:42;35.73;;;18.60;;
60306;SDS011;46155;52.364;6.580;2023-01-10T10:10:11;38.47;;;19.97;;
60306;SDS011;46155;52.364;6.580;2023-01-10T10:12:45;32.50;;;17.57;;
60306;SDS011;46155;52.364;6.580;2023-01-10T10:15:14;35.97;;;19.20;;
60306;SDS011;46155;52.364;6.580;2023-01-10T10:17:54;22.67;;;15.60;;
60306;SDS011;46155;52.364;6.580;2023-01-10T10:20:30;19.87;;;18.03;;
60306;SDS011;46155;52.364;6.580;2023-01-10T10:26:01;27.90;;;17.33;;
60306;SDS011;46155;52.364;6.580;2023-01-10T10:34:28;33.87;;;17.47;;
60306;SDS011;46155;52.364;6.580;2023-01-10T10:37:19;41.47;;;18.07;;
60306;SDS011;46155;52.364;6.580;2023-01-10T10:39:53;28.83;;;15.50;;
60306;SDS011;46155;52.364;6.580;2023-01-10T10:42:21;21.80;;;14.67;;
60306;SDS011;46155;52.364;6.580;2023-01-10T10:45:00;22.30;;;15.20;;
60306;SDS011;46155;52.364;6.580;2023-01-10T10:47:33;31.20;;;13.23;;
60306;SDS011;46155;52.364;6.580;2023-01-10T10:50:04;26.30;;;13.50;;
60306;SDS011;46155;52.364;6.580;2023-01-10T10:52:39;20.87;;;13.43;;
60306;SDS011;46155;52.364;6.580;2023-01-10T10:55:10;20.40;;;13.57;;
60306;SDS011;46155;52.364;6.580;2023-01-10T10:57:37;21.97;;;13.30;;
60306;SDS011;46155;52.364;6.580;2023-01-10T11:00:04;21.27;;;13.77;;
60306;SDS011;46155;52.364;6.580;2023-01-10T11:03:22;19.70;;;12.73;;
60306;SDS011;46155;52.364;6.580;2023-01-10T11:05:57;22.70;;;11.70;;
60306;SDS011;46155;52.364;6.580;2023-01-10T11:08:16;21.40;;;12.97;;
60306;SDS011;46155;52.364;6.580;2023-01-10T11:10:53;16.77;;;11.77;;
60306;SDS011;46155;52.364;6.580;2023-01-10T11:15:58;27.77;;;13.10;;
60306;SDS011;46155;52.364;6.580;2023-01-10T11:18:25;23.03;;;13.57;;
60306;SDS011;46155;52.364;6.580;2023-01-10T11:20:57;25.80;;;12.90;;
60306;SDS011;46155;52.364;6.580;2023-01-10T11:23:49;29.17;;;12.20;;
60306;SDS011;46155;52.364;6.580;2023-01-10T11:26:30;40.57;;;14.30;;
60306;SDS011;46155;52.364;6.580;2023-01-10T11:29:07;34.47;;;12.60;;
60306;SDS011;46155;52.364;6.580;2023-01-10T11:31:41;21.83;;;11.13;;
60306;SDS011;46155;52.364;6.580;2023-01-10T11:34:16;24.83;;;12.13;;
60306;SDS011;46155;52.364;6.580;2023-01-10T11:36:51;31.23;;;12.77;;
60306;SDS011;46155;52.364;6.580;2023-01-10T11:39:17;32.07;;;10.97;;
60306;SDS011;46155;52.364;6.580;2023-01-10T11:41:43;30.63;;;12.20;;
60306;SDS011;46155;52.364;6.580;2023-01-10T11:44:16;20.53;;;11.23;;
60306;SDS011;46155;52.364;6.580;2023-01-10T11:46:46;23.37;;;12.20;;
60306;SDS011;46155;52.364;6.580;2023-01-10T11:49:14;25.77;;;11.93;;
60306;SDS011;46155;52.364;6.580;2023-01-10T11:51:49;28.90;;;12.47;;
60306;SDS011;46155;52.364;6.580;2023-01-10T11:54:24;26.20;;;11.00;;
60306;SDS011;46155;52.364;6.580;2023-01-10T11:56:59;33.13;;;12.27;;
60306;SDS011;46155;52.364;6.580;2023-01-10T11:59:28;31.33;;;11.43;;
60306;SDS011;46155;52.364;6.580;2023-01-10T12:01:55;22.63;;;10.63;;
60306;SDS011;46155;52.364;6.580;2023-01-10T12:04:24;20.20;;;11.23;;
60306;SDS011;46155;52.364;6.580;2023-01-10T12:06:54;28.67;;;10.07;;
60306;SDS011;46155;52.364;6.580;2023-01-10T12:09:30;23.03;;;11.17;;
60306;SDS011;46155;52.364;6.580;2023-01-10T12:12:03;29.37;;;12.07;;
60306;SDS011;46155;52.364;6.580;2023-01-10T12:14:30;21.43;;;12.43;;
60306;SDS011;46155;52.364;6.580;2023-01-10T12:16:59;18.57;;;12.13;;
60306;SDS011;46155;52.364;6.580;2023-01-10T12:19:27;20.47;;;12.67;;
60306;SDS011;46155;52.364;6.580;2023-01-10T12:21:53;28.87;;;12.73;;
60306;SDS011;46155;52.364;6.580;2023-01-10T12:24:25;22.03;;;11.20;;
60306;SDS011;46155;52.364;6.580;2023-01-10T12:26:54;21.07;;;13.10;;
60306;SDS011;46155;52.364;6.580;2023-01-10T12:29:25;28.03;;;11.97;;
60306;SDS011;46155;52.364;6.580;2023-01-10T12:31:53;25.87;;;11.97;;
60306;SDS011;46155;52.364;6.580;2023-01-10T12:34:22;25.97;;;10.00;;
60306;SDS011;46155;52.364;6.580;2023-01-10T12:37:03;26.20;;;11.20;;
60306;SDS011;46155;52.364;6.580;2023-01-10T12:39:37;33.03;;;12.00;;
60306;SDS011;46155;52.364;6.580;2023-01-10T12:47:34;44.53;;;13.90;;
60306;SDS011;46155;52.364;6.580;2023-01-10T12:52:47;21.33;;;11.70;;
60306;SDS011;46155;52.364;6.580;2023-01-10T12:55:20;14.77;;;12.20;;
60306;SDS011;46155;52.364;6.580;2023-01-10T12:57:50;18.17;;;11.83;;
60306;SDS011;46155;52.364;6.580;2023-01-10T13:00:23;29.53;;;11.00;;
60306;SDS011;46155;52.364;6.580;2023-01-10T13:02:54;28.07;;;11.23;;
60306;SDS011;46155;52.364;6.580;2023-01-10T13:05:24;19.10;;;10.90;;
60306;SDS011;46155;52.364;6.580;2023-01-10T13:07:55;20.73;;;13.53;;
60306;SDS011;46155;52.364;6.580;2023-01-10T13:10:24;30.80;;;11.23;;
60306;SDS011;46155;52.364;6.580;2023-01-10T13:12:57;17.37;;;11.63;;
60306;SDS011;46155;52.364;6.580;2023-01-10T13:15:33;25.10;;;10.60;;
60306;SDS011;46155;52.364;6.580;2023-01-10T13:18:18;23.33;;;11.87;;
60306;SDS011;46155;52.364;6.580;2023-01-10T13:20:50;24.13;;;11.20;;
60306;SDS011;46155;52.364;6.580;2023-01-10T13:23:32;24.10;;;11.27;;
60306;SDS011;46155;52.364;6.580;2023-01-10T13:26:02;27.60;;;12.73;;
60306;SDS011;46155;52.364;6.580;2023-01-10T13:28:34;23.10;;;11.57;;
60306;SDS011;46155;52.364;6.580;2023-01-10T13:31:04;28.23;;;12.43;;
60306;SDS011;46155;52.364;6.580;2023-01-10T13:33:52;23.27;;;11.50;;
60306;SDS011;46155;52.364;6.580;2023-01-10T13:36:29;18.70;;;10.50;;
60306;SDS011;46155;52.364;6.580;2023-01-10T13:39:04;24.73;;;12.13;;
60306;SDS011;46155;52.364;6.580;2023-01-10T13:52:46;24.47;;;10.27;;
60306;SDS011;46155;52.364;6.580;2023-01-10T13:55:28;26.33;;;10.50;;
60306;SDS011;46155;52.364;6.580;2023-01-10T14:03:37;17.13;;;11.07;;
60306;SDS011;46155;52.364;6.580;2023-01-10T14:06:18;26.70;;;9.67;;
60306;SDS011;46155;52.364;6.580;2023-01-10T14:11:27;25.77;;;9.70;;
60306;SDS011;46155;52.364;6.580;2023-01-10T14:16:52;22.20;;;10.60;;
60306;SDS011;46155;52.364;6.580;2023-01-10T14:19:22;12.53;;;9.73;;
60306;SDS011;46155;52.364;6.580;2023-01-10T14:21:52;11.70;;;9.67;;
60306;SDS011;46155;52.364;6.580;2023-01-10T14:24:23;16.20;;;10.50;;
60306;SDS011;46155;52.364;6.580;2023-01-10T14:26:52;24.00;;;10.33;;
60306;SDS011;46155;52.364;6.580;2023-01-10T14:29:19;30.53;;;10.43;;
60306;SDS011;46155;52.364;6.580;2023-01-10T14:31:45;19.63;;;10.80;;
60306;SDS011;46155;52.364;6.580;2023-01-10T14:34:15;23.40;;;9.80;;
60306;SDS011;46155;52.364;6.580;2023-01-10T14:36:56;21.30;;;10.10;;
60306;SDS011;46155;52.364;6.580;2023-01-10T14:39:24;25.43;;;10.50;;
60306;SDS011;46155;52.364;6.580;2023-01-10T14:41:52;13.73;;;9.90;;
60306;SDS011;46155;52.364;6.580;2023-01-10T14:46:59;20.37;;;9.70;;
60306;SDS011;46155;52.364;6.580;2023-01-10T14:52:17;22.97;;;8.97;;
60306;SDS011;46155;52.364;6.580;2023-01-10T14:54:44;25.73;;;10.23;;
60306;SDS011;46155;52.364;6.580;2023-01-10T14:57:18;24.03;;;10.40;;
60306;SDS011;46155;52.364;6.580;2023-01-10T14:59:45;14.53;;;9.60;;
60306;SDS011;46155;52.364;6.580;2023-01-10T15:02:16;18.27;;;10.67;;
60306;SDS011;46155;52.364;6.580;2023-01-10T15:05:14;21.17;;;9.63;;
60306;SDS011;46155;52.364;6.580;2023-01-10T15:07:39;18.83;;;8.90;;
60306;SDS011;46155;52.364;6.580;2023-01-10T15:10:17;19.33;;;9.97;;
60306;SDS011;46155;52.364;6.580;2023-01-10T15:12:43;19.90;;;10.57;;
60306;SDS011;46155;52.364;6.580;2023-01-10T15:15:12;19.43;;;12.37;;
60306;SDS011;46155;52.364;6.580;2023-01-10T15:17:41;18.13;;;11.47;;
60306;SDS011;46155;52.364;6.580;2023-01-10T15:20:12;29.63;;;12.37;;
60306;SDS011;46155;52.364;6.580;2023-01-10T15:22:48;16.90;;;11.30;;
60306;SDS011;46155;52.364;6.580;2023-01-10T15:27:45;23.87;;;9.90;;
60306;SDS011;46155;52.364;6.580;2023-01-10T15:30:17;10.53;;;8.90;;
60306;SDS011;46155;52.364;6.580;2023-01-10T15:33:02;20.83;;;10.00;;
60306;SDS011;46155;52.364;6.580;2023-01-10T15:35:30;18.10;;;9.77;;
60306;SDS011;46155;52.364;6.580;2023-01-10T15:37:57;19.67;;;9.77;;
60306;SDS011;46155;52.364;6.580;2023-01-10T15:40:28;14.47;;;8.40;;
60306;SDS011;46155;52.364;6.580;2023-01-10T15:43:09;26.10;;;9.53;;
60306;SDS011;46155;52.364;6.580;2023-01-10T15:45:34;15.17;;;9.43;;
60306;SDS011;46155;52.364;6.580;2023-01-10T15:48:03;22.83;;;9.80;;
60306;SDS011;46155;52.364;6.580;2023-01-10T15:50:30;21.37;;;9.10;;
60306;SDS011;46155;52.364;6.580;2023-01-10T15:53:01;12.23;;;9.63;;
60306;SDS011;46155;52.364;6.580;2023-01-10T16:00:59;15.73;;;9.83;;
60306;SDS011;46155;52.364;6.580;2023-01-10T16:03:26;22.53;;;11.13;;
60306;SDS011;46155;52.364;6.580;2023-01-10T16:05:56;13.73;;;9.83;;
60306;SDS011;46155;52.364;6.580;2023-01-10T16:08:24;15.97;;;12.77;;
60306;SDS011;46155;52.364;6.580;2023-01-10T16:10:55;15.33;;;12.43;;
60306;SDS011;46155;52.364;6.580;2023-01-10T16:13:22;27.80;;;14.80;;
60306;SDS011;46155;52.364;6.580;2023-01-10T16:15:51;24.97;;;16.27;;
60306;SDS011;46155;52.364;6.580;2023-01-10T16:18:17;21.30;;;16.00;;
60306;SDS011;46155;52.364;6.580;2023-01-10T16:20:43;23.63;;;15.70;;
60306;SDS011;46155;52.364;6.580;2023-01-10T16:23:16;28.07;;;15.17;;
60306;SDS011;46155;52.364;6.580;2023-01-10T16:25:45;24.77;;;16.93;;
60306;SDS011;46155;52.364;6.580;2023-01-10T16:28:13;37.77;;;19.90;;
60306;SDS011;46155;52.364;6.580;2023-01-10T16:30:40;29.03;;;17.97;;
60306;SDS011;46155;52.364;6.580;2023-01-10T16:33:11;21.70;;;19.77;;
60306;SDS011;46155;52.364;6.580;2023-01-10T16:35:40;21.43;;;19.70;;
60306;SDS011;46155;52.364;6.580;2023-01-10T16:38:07;31.40;;;23.13;;
60306;SDS011;46155;52.364;6.580;2023-01-10T16:40:56;37.17;;;22.30;;
60306;SDS011;46155;52.364;6.580;2023-01-10T16:43:23;24.30;;;21.63;;
60306;SDS011;46155;52.364;6.580;2023-01-10T16:45:54;25.63;;;23.80;;
60306;SDS011;46155;52.364;6.580;2023-01-10T16:48:29;26.03;;;23.40;;
60306;SDS011;46155;52.364;6.580;2023-01-10T16:51:12;28.90;;;26.50;;
60306;SDS011;46155;52.364;6.580;2023-01-10T16:53:41;31.77;;;29.23;;
60306;SDS011;46155;52.364;6.580;2023-01-10T16:56:07;35.10;;;30.63;;
60306;SDS011;46155;52.364;6.580;2023-01-10T16:58:37;32.47;;;30.37;;
60306;SDS011;46155;52.364;6.580;2023-01-10T17:01:03;35.33;;;32.27;;
60306;SDS011;46155;52.364;6.580;2023-01-10T17:03:28;35.47;;;32.13;;
60306;SDS011;46155;52.364;6.580;2023-01-10T17:06:01;34.80;;;31.57;;
60306;SDS011;46155;52.364;6.580;2023-01-10T17:08:26;33.47;;;29.90;;
60306;SDS011;46155;52.364;6.580;2023-01-10T17:10:57;30.20;;;27.57;;
60306;SDS011;46155;52.364;6.580;2023-01-10T17:13:25;32.40;;;29.37;;
60306;SDS011;46155;52.364;6.580;2023-01-10T17:15:53;35.83;;;33.50;;
60306;SDS011;46155;52.364;6.580;2023-01-10T17:18:18;35.40;;;31.63;;
60306;SDS011;46155;52.364;6.580;2023-01-10T17:20:44;38.03;;;34.47;;
60306;SDS011;46155;52.364;6.580;2023-01-10T17:23:10;36.37;;;32.77;;
60306;SDS011;46155;52.364;6.580;2023-01-10T17:25:36;32.83;;;29.77;;
60306;SDS011;46155;52.364;6.580;2023-01-10T17:28:02;30.47;;;27.43;;
60306;SDS011;46155;52.364;6.580;2023-01-10T17:30:27;35.30;;;31.63;;
60306;SDS011;46155;52.364;6.580;2023-01-10T17:32:52;34.40;;;31.47;;
60306;SDS011;46155;52.364;6.580;2023-01-10T17:35:17;31.53;;;29.03;;
60306;SDS011;46155;52.364;6.580;2023-01-10T17:37:47;34.93;;;31.13;;
60306;SDS011;46155;52.364;6.580;2023-01-10T17:40:13;35.97;;;33.17;;
60306;SDS011;46155;52.364;6.580;2023-01-10T17:42:38;35.07;;;32.03;;
60306;SDS011;46155;52.364;6.580;2023-01-10T17:45:03;35.33;;;32.60;;
60306;SDS011;46155;52.364;6.580;2023-01-10T17:47:29;37.57;;;34.23;;
60306;SDS011;46155;52.364;6.580;2023-01-10T17:49:54;38.90;;;35.60;;
60306;SDS011;46155;52.364;6.580;2023-01-10T17:52:20;37.87;;;34.87;;
60306;SDS011;46155;52.364;6.580;2023-01-10T17:54:45;40.90;;;37.57;;
60306;SDS011;46155;52.364;6.580;2023-01-10T17:57:10;39.10;;;35.93;;
60306;SDS011;46155;52.364;6.580;2023-01-10T17:59:36;38.43;;;35.20;;
60306;SDS011;46155;52.364;6.580;2023-01-10T18:02:01;40.13;;;37.27;;
60306;SDS011;46155;52.364;6.580;2023-01-10T18:04:26;40.20;;;37.17;;
60306;SDS011;46155;52.364;6.580;2023-01-10T18:06:52;40.40;;;37.10;;
60306;SDS011;46155;52.364;6.580;2023-01-10T18:09:17;41.63;;;37.93;;
60306;SDS011;46155;52.364;6.580;2023-01-10T18:11:43;37.37;;;34.77;;
60306;SDS011;46155;52.364;6.580;2023-01-10T18:14:09;40.57;;;37.10;;
60306;SDS011;46155;52.364;6.580;2023-01-10T18:16:52;41.43;;;38.10;;
60306;SDS011;46155;52.364;6.580;2023-01-10T18:19:17;42.73;;;38.20;;
60306;SDS011;46155;52.364;6.580;2023-01-10T18:21:43;39.47;;;36.73;;
60306;SDS011;46155;52.364;6.580;2023-01-10T18:24:08;39.93;;;36.60;;
60306;SDS011;46155;52.364;6.580;2023-01-10T18:26:33;42.60;;;38.33;;
60306;SDS011;46155;52.364;6.580;2023-01-10T18:28:59;43.47;;;39.20;;
60306;SDS011;46155;52.364;6.580;2023-01-10T18:31:24;41.27;;;38.43;;
60306;SDS011;46155;52.364;6.580;2023-01-10T18:33:50;44.50;;;40.70;;
60306;SDS011;46155;52.364;6.580;2023-01-10T18:36:18;41.93;;;39.17;;
60306;SDS011;46155;52.364;6.580;2023-01-10T18:38:45;39.30;;;36.63;;
60306;SDS011;46155;52.364;6.580;2023-01-10T18:41:11;39.30;;;36.97;;
60306;SDS011;46155;52.364;6.580;2023-01-10T18:43:36;39.97;;;37.50;;
60306;SDS011;46155;52.364;6.580;2023-01-10T18:46:03;37.73;;;35.27;;
60306;SDS011;46155;52.364;6.580;2023-01-10T18:48:30;41.37;;;38.13;;
60306;SDS011;46155;52.364;6.580;2023-01-10T18:50:57;39.27;;;36.60;;
60306;SDS011;46155;52.364;6.580;2023-01-10T18:53:24;40.00;;;37.20;;
60306;SDS011;46155;52.364;6.580;2023-01-10T18:55:59;40.87;;;38.27;;
60306;SDS011;46155;52.364;6.580;2023-01-10T18:58:32;39.87;;;37.00;;
60306;SDS011;46155;52.364;6.580;2023-01-10T19:03:32;38.67;;;35.83;;
60306;SDS011;46155;52.364;6.580;2023-01-10T19:05:58;37.43;;;34.87;;
60306;SDS011;46155;52.364;6.580;2023-01-10T19:08:25;36.33;;;34.23;;
60306;SDS011;46155;52.364;6.580;2023-01-10T19:10:51;37.20;;;34.37;;
60306;SDS011;46155;52.364;6.580;2023-01-10T19:13:17;40.80;;;37.70;;
60306;SDS011;46155;52.364;6.580;2023-01-10T19:15:43;35.53;;;33.63;;
60306;SDS011;46155;52.364;6.580;2023-01-10T19:18:08;37.83;;;35.40;;
60306;SDS011;46155;52.364;6.580;2023-01-10T19:20:34;34.77;;;32.50;;
60306;SDS011;46155;52.364;6.580;2023-01-10T19:22:59;37.03;;;35.00;;
60306;SDS011;46155;52.364;6.580;2023-01-10T19:25:24;40.10;;;37.43;;
60306;SDS011;46155;52.364;6.580;2023-01-10T19:27:50;39.93;;;37.20;;
60306;SDS011;46155;52.364;6.580;2023-01-10T19:30:15;40.43;;;37.87;;
60306;SDS011;46155;52.364;6.580;2023-01-10T19:32:40;41.37;;;38.77;;
60306;SDS011;46155;52.364;6.580;2023-01-10T19:35:06;36.23;;;34.03;;
60306;SDS011;46155;52.364;6.580;2023-01-10T19:37:32;38.20;;;35.57;;
60306;SDS011;46155;52.364;6.580;2023-01-10T19:39:58;39.97;;;37.87;;
60306;SDS011;46155;52.364;6.580;2023-01-10T19:42:23;39.57;;;37.07;;